Time;durP1;ratioP1;P1;durP2;ratioP2;P2;SDS_P1;SDS_P2;PMS_P1;PMS_P2;Temp;Humidity;BMP_temperature;BMP_pressure;BME280_temperature;BME280_humidity;BME280_pressure;Samples;Min_cycle;Max_cycle;Signal;HPM_P1;HPM_P2
2023/12/26 00:02:50;;;;;;;0.50;0.50;;;20.00;38.20;;;;;;8364183;28;20483;-51
2023/12/26 00:06:51;;;;;;;0.70;0.60;;;20.10;38.10;;;;;;8363927;28;20182;-48
2023/12/26 00:10:52;;;;;;;0.85;0.57;;;20.00;38.00;;;;;;8364133;28;20037;-50
2023/12/26 00:14:52;;;;;;;0.40;0.40;;;20.10;38.10;;;;;;8364288;28;20115;-50
2023/12/26 00:18:53;;;;;;;0.65;0.60;;;19.90;38.70;;;;;;8363776;28;20037;-50
2023/12/26 00:22:54;;;;;;;0.50;0.50;;;19.90;38.60;;;;;;8363589;28;20037;-50
2023/12/26 00:26:55;;;;;;;0.52;0.50;;;19.70;39.70;;;;;;8363594;28;20036;-49
2023/12/26 00:30:59;;;;;;;0.50;0.50;;;19.60;39.60;;;;;;8362464;28;20452;-50
2023/12/26 00:35:03;;;;;;;0.60;0.60;;;19.70;39.30;;;;;;8363466;28;20044;-49
2023/12/26 00:39:04;;;;;;;0.50;0.50;;;19.80;38.80;;;;;;8363158;28;20030;-50
2023/12/26 00:43:16;;;;;;;0.55;0.50;;;19.90;38.60;;;;;;8363073;28;20029;-49
2023/12/26 00:47:17;;;;;;;0.52;0.52;;;19.90;38.30;;;;;;8362758;28;20086;-48
2023/12/26 00:51:18;;;;;;;1.20;0.70;;;20.00;38.10;;;;;;8362738;28;20029;-48
2023/12/26 00:55:19;;;;;;;0.55;0.50;;;20.00;38.10;;;;;;8362562;28;20451;-49
2023/12/26 00:59:19;;;;;;;0.50;0.50;;;20.10;38.00;;;;;;8362369;28;20128;-52
2023/12/26 01:03:22;;;;;;;0.65;0.60;;;20.10;38.00;;;;;;8361365;28;20087;-49
2023/12/26 01:07:22;;;;;;;0.50;0.50;;;20.00;38.00;;;;;;8361957;28;20060;-49
2023/12/26 01:11:23;;;;;;;0.60;0.60;;;19.90;38.40;;;;;;8362015;28;20514;-49
2023/12/26 01:15:24;;;;;;;0.68;0.55;;;19.60;39.80;;;;;;8362003;28;20053;-49
2023/12/26 01:19:25;;;;;;;1.25;0.50;;;19.50;40.00;;;;;;8361950;28;20042;-48
2023/12/26 01:23:26;;;;;;;0.55;0.55;;;19.60;39.40;;;;;;8361725;28;20112;-48
2023/12/26 01:27:27;;;;;;;0.82;0.70;;;19.80;39.00;;;;;;8361355;28;20379;-49
2023/12/26 01:31:31;;;;;;;0.77;0.77;;;19.80;38.60;;;;;;8361409;28;20041;-50
2023/12/26 01:35:31;;;;;;;0.57;0.57;;;19.90;38.40;;;;;;8361191;28;20047;-48
2023/12/26 01:39:32;;;;;;;0.40;0.40;;;19.90;38.10;;;;;;8361025;28;20033;-48
2023/12/26 01:43:36;;;;;;;0.52;0.38;;;20.00;38.10;;;;;;8360962;28;20075;-48
2023/12/26 01:47:39;;;;;;;0.40;0.40;;;20.00;38.00;;;;;;8360720;28;20175;-48
2023/12/26 01:51:42;;;;;;;0.40;0.40;;;20.00;38.10;;;;;;8360625;28;20078;-50
2023/12/26 01:55:43;;;;;;;1.17;0.65;;;20.00;38.10;;;;;;8359595;28;20108;-49
2023/12/26 01:59:44;;;;;;;0.80;0.50;;;19.90;38.50;;;;;;8360337;28;20091;-48
2023/12/26 02:03:48;;;;;;;0.60;0.60;;;19.70;39.60;;;;;;8360929;28;20029;-48
2023/12/26 02:07:53;;;;;;;0.65;0.50;;;19.60;39.40;;;;;;8360043;28;20045;-48
2023/12/26 02:11:57;;;;;;;0.80;0.50;;;19.70;39.00;;;;;;8359997;28;20033;-49
2023/12/26 02:16:11;;;;;;;1.95;0.50;;;19.80;38.80;;;;;;8360194;28;20541;-48
2023/12/26 02:20:15;;;;;;;0.60;0.60;;;19.80;38.80;;;;;;8359816;28;20037;-48
2023/12/26 02:24:18;;;;;;;0.43;0.40;;;19.80;38.50;;;;;;8360222;28;20091;-48
2023/12/26 02:28:19;;;;;;;0.68;0.68;;;19.90;38.30;;;;;;8359838;28;20406;-47
2023/12/26 02:32:25;;;;;;;0.60;0.60;;;20.00;38.10;;;;;;8360078;28;20371;-49
2023/12/26 02:36:27;;;;;;;0.43;0.43;;;20.00;38.10;;;;;;8359705;28;20359;-49
2023/12/26 02:40:27;;;;;;;;;;;20.00;38.10;;;;;;8359972;28;20029;-48
2023/12/26 02:44:28;;;;;;;0.73;0.60;;;19.90;38.10;;;;;;8360373;28;19959;-49
2023/12/26 02:48:29;;;;;;;0.65;0.50;;;19.80;38.90;;;;;;8359528;28;20068;-49
2023/12/26 02:52:29;;;;;;;1.17;0.73;;;19.60;39.60;;;;;;8361511;28;20309;-48
2023/12/26 02:56:30;;;;;;;1.15;0.60;;;19.60;39.40;;;;;;8364831;28;20056;-47
2023/12/26 03:00:31;;;;;;;0.50;0.40;;;19.70;39.00;;;;;;8366126;28;20029;-49
2023/12/26 03:04:32;;;;;;;0.63;0.60;;;19.80;38.60;;;;;;8365950;28;20048;-48
2023/12/26 03:08:32;;;;;;;0.88;0.60;;;19.80;38.30;;;;;;8365499;28;20057;-49
2023/12/26 03:12:33;;;;;;;0.55;0.50;;;19.90;38.20;;;;;;8365817;28;20483;-48
2023/12/26 03:16:34;;;;;;;0.65;0.65;;;19.90;38.30;;;;;;8365530;28;20032;-49
2023/12/26 03:20:34;;;;;;;0.60;0.50;;;19.90;38.40;;;;;;8364048;28;20037;-48
2023/12/26 03:24:35;;;;;;;0.57;0.52;;;19.90;38.30;;;;;;8365258;28;20040;-49
2023/12/26 03:28:36;;;;;;;0.75;0.60;;;19.90;38.20;;;;;;8365046;28;20028;-51
2023/12/26 03:32:36;;;;;;;0.55;0.55;;;19.90;38.20;;;;;;8363913;28;20036;-48
2023/12/26 03:36:45;;;;;;;0.57;0.55;;;19.80;39.10;;;;;;8363530;28;20063;-49
2023/12/26 03:40:45;;;;;;;0.60;0.60;;;19.60;39.70;;;;;;8364798;28;20086;-50
2023/12/26 03:44:47;;;;;;;0.45;0.45;;;19.60;39.40;;;;;;8364834;28;20037;-48
2023/12/26 03:48:48;;;;;;;0.52;0.50;;;19.60;39.00;;;;;;8364377;28;20033;-49
2023/12/26 03:52:48;;;;;;;0.50;0.50;;;19.70;38.60;;;;;;8363704;28;20064;-49
2023/12/26 03:56:49;;;;;;;0.50;0.50;;;19.80;38.40;;;;;;8364608;28;20033;-49
2023/12/26 04:00:50;;;;;;;0.50;0.50;;;19.80;38.20;;;;;;8362884;28;20033;-49
2023/12/26 04:04:50;;;;;;;0.40;0.40;;;19.90;38.00;;;;;;8362860;28;20087;-49
2023/12/26 04:08:52;;;;;;;0.60;0.50;;;19.90;38.30;;;;;;8364113;28;20052;-49
2023/12/26 04:12:53;;;;;;;0.60;0.60;;;20.00;38.00;;;;;;8362812;28;20159;-49
2023/12/26 04:16:54;;;;;;;0.63;0.50;;;19.90;38.20;;;;;;8362589;28;20056;-48
2023/12/26 04:20:55;;;;;;;0.50;0.50;;;19.80;38.50;;;;;;8363672;28;20029;-49
2023/12/26 04:24:56;;;;;;;0.50;0.40;;;19.70;39.20;;;;;;8363472;28;20131;-49
2023/12/26 04:28:57;;;;;;;0.93;0.60;;;19.50;39.90;;;;;;8361904;28;20048;-51
2023/12/26 04:32:57;;;;;;;0.38;0.38;;;19.50;39.40;;;;;;8363295;28;20462;-51
2023/12/26 04:36:58;;;;;;;0.50;0.50;;;19.60;39.00;;;;;;8363254;28;20029;-52
2023/12/26 04:40:59;;;;;;;0.65;0.43;;;19.70;38.60;;;;;;8362825;28;20039;-49
2023/12/26 04:45:00;;;;;;;0.50;0.50;;;19.80;38.40;;;;;;8362742;28;20075;-49
2023/12/26 04:49:00;;;;;;;0.40;0.40;;;19.80;38.20;;;;;;8362764;28;20091;-46
2023/12/26 04:53:04;;;;;;;0.55;0.50;;;19.90;38.00;;;;;;8361367;28;20122;-46
2023/12/26 04:57:05;;;;;;;0.50;0.50;;;19.90;38.00;;;;;;8362271;28;20693;-48
2023/12/26 05:01:06;;;;;;;0.40;0.40;;;20.00;38.00;;;;;;8361333;28;20041;-48
2023/12/26 05:05:07;;;;;;;0.65;0.60;;;19.90;38.00;;;;;;8362211;28;20465;-46
2023/12/26 05:09:08;;;;;;;;;;;19.90;38.00;;;;;;8362315;28;20116;-48
2023/12/26 05:13:09;;;;;;;0.40;0.40;;;19.70;38.90;;;;;;8361003;28;19962;-50
2023/12/26 05:17:10;;;;;;;0.52;0.47;;;19.50;39.80;;;;;;8361522;28;20029;-47
2023/12/26 05:21:18;;;;;;;0.60;0.60;;;19.50;39.50;;;;;;8361705;28;20033;-48
2023/12/26 05:25:19;;;;;;;0.75;0.50;;;19.60;38.90;;;;;;8361589;28;20041;-46
2023/12/26 05:29:19;;;;;;;0.57;0.50;;;19.80;38.50;;;;;;8361388;28;20045;-49
2023/12/26 05:33:20;;;;;;;0.55;0.52;;;20.00;38.20;;;;;;8361243;28;20036;-48
2023/12/26 05:37:22;;;;;;;0.60;0.60;;;20.10;37.90;;;;;;8361424;28;20384;-50
2023/12/26 05:41:24;;;;;;;2.60;0.50;;;20.20;37.60;;;;;;8361079;28;20037;-48
2023/12/26 05:45:25;;;;;;;0.57;0.55;;;20.10;37.60;;;;;;8361048;28;20032;-47
2023/12/26 05:49:26;;;;;;;1.27;0.40;;;20.20;37.60;;;;;;8360685;28;20029;-48
2023/12/26 05:53:30;;;;;;;0.63;0.55;;;20.10;37.70;;;;;;8342959;28;20489;-46
2023/12/26 05:57:31;;;;;;;0.90;0.50;;;20.10;37.80;;;;;;8360576;28;20021;-47
2023/12/26 06:01:31;;;;;;;0.60;0.60;;;20.00;38.40;;;;;;8359478;28;20628;-51
2023/12/26 06:05:32;;;;;;;0.57;0.40;;;19.80;39.00;;;;;;8360259;28;20468;-50
2023/12/26 06:09:34;;;;;;;0.73;0.57;;;19.80;39.20;;;;;;8360515;28;20166;-48
2023/12/26 06:13:34;;;;;;;0.50;0.50;;;19.90;38.30;;;;;;8360426;28;20029;-49
2023/12/26 06:17:36;;;;;;;0.68;0.68;;;19.90;38.30;;;;;;8360583;28;20489;-51
2023/12/26 06:21:37;;;;;;;0.45;0.40;;;20.00;38.20;;;;;;8359084;28;20025;-51
2023/12/26 06:25:38;;;;;;;0.40;0.40;;;20.10;37.90;;;;;;8360292;28;20032;-51
2023/12/26 06:29:39;;;;;;;0.50;0.50;;;20.20;37.70;;;;;;8326913;28;20124;-50
2023/12/26 06:33:39;;;;;;;0.52;0.50;;;20.20;37.80;;;;;;8327214;28;20041;-50
2023/12/26 06:37:41;;;;;;;0.50;0.50;;;20.20;37.60;;;;;;8327135;28;20475;-49
2023/12/26 06:41:43;;;;;;;0.57;0.32;;;20.20;37.70;;;;;;8327216;28;20036;-50
2023/12/26 06:45:43;;;;;;;0.77;0.40;;;20.20;37.70;;;;;;8327028;28;20383;-49
2023/12/26 06:49:45;;;;;;;0.40;0.40;;;20.00;38.50;;;;;;8326927;28;20053;-49
2023/12/26 06:53:47;;;;;;;0.47;0.47;;;19.80;39.10;;;;;;8326814;28;20033;-51
2023/12/26 06:57:47;;;;;;;0.68;0.68;;;19.70;39.30;;;;;;8343321;28;20033;-50
2023/12/26 07:01:48;;;;;;;0.70;0.50;;;19.60;39.50;;;;;;8359752;28;20112;-49
2023/12/26 07:05:49;;;;;;;0.40;0.40;;;19.60;39.60;;;;;;8359550;28;20049;-49
2023/12/26 07:09:49;;;;;;;0.38;0.38;;;19.70;39.60;;;;;;8359407;28;20490;-47
2023/12/26 07:13:50;;;;;;;0.50;0.50;;;19.60;39.60;;;;;;8359212;28;20037;-49
2023/12/26 07:17:51;;;;;;;1.15;0.55;;;19.60;39.70;;;;;;8358869;28;20033;-48
2023/12/26 07:21:52;;;;;;;0.50;0.47;;;19.60;40.10;;;;;;8358985;28;20033;-47
2023/12/26 07:25:53;;;;;;;0.43;0.43;;;19.60;40.00;;;;;;8358643;28;20033;-49
2023/12/26 07:29:54;;;;;;;0.60;0.60;;;19.60;39.80;;;;;;8358784;28;20056;-47
2023/12/26 07:33:55;;;;;;;0.43;0.43;;;19.60;39.90;;;;;;8357460;28;20029;-49
2023/12/26 07:37:56;;;;;;;0.50;0.50;;;19.60;39.80;;;;;;8359627;28;20403;-48
2023/12/26 07:41:57;;;;;;;0.52;0.52;;;19.70;40.00;;;;;;8364463;28;20060;-47
2023/12/26 07:45:57;;;;;;;0.38;0.38;;;19.60;39.90;;;;;;8364725;28;20041;-50
2023/12/26 07:49:58;;;;;;;0.43;0.43;;;19.60;40.00;;;;;;8364416;28;20514;-50
2023/12/26 07:54:02;;;;;;;0.70;0.60;;;19.60;40.20;;;;;;8364307;28;20438;-48
2023/12/26 07:58:03;;;;;;;0.50;0.50;;;19.50;40.20;;;;;;8364635;28;20033;-47
2023/12/26 08:02:04;;;;;;;0.50;0.40;;;19.50;40.30;;;;;;8364231;28;20542;-49
2023/12/26 08:06:05;;;;;;;0.40;0.40;;;19.50;40.30;;;;;;8363671;28;20080;-47
2023/12/26 08:10:06;;;;;;;0.55;0.40;;;19.50;40.20;;;;;;8364133;28;20040;-48
2023/12/26 08:14:07;;;;;;;0.68;0.68;;;19.50;40.10;;;;;;8363539;28;20037;-48
2023/12/26 08:18:08;;;;;;;0.50;0.50;;;19.50;40.30;;;;;;8363677;28;20596;-48
2023/12/26 08:22:08;;;;;;;0.50;0.50;;;19.50;40.40;;;;;;8363724;28;20505;-49
2023/12/26 08:26:09;;;;;;;0.40;0.40;;;19.50;40.30;;;;;;8363376;28;20098;-48
2023/12/26 08:30:10;;;;;;;0.50;0.50;;;19.50;40.30;;;;;;8363496;28;20041;-51
2023/12/26 08:34:11;;;;;;;;;;;19.60;40.20;;;;;;8363390;28;20082;-50
2023/12/26 08:38:13;;;;;;;0.50;0.50;;;19.60;40.20;;;;;;8363078;28;19988;-50
2023/12/26 08:42:14;;;;;;;0.40;0.40;;;19.60;40.20;;;;;;8362984;28;20668;-49
2023/12/26 08:46:16;;;;;;;0.52;0.52;;;19.60;40.10;;;;;;8362716;28;20041;-48
2023/12/26 08:50:16;;;;;;;0.88;0.50;;;19.60;40.20;;;;;;8361797;28;20040;-48
2023/12/26 08:54:17;;;;;;;0.95;0.45;;;19.60;40.20;;;;;;8362573;28;20498;-51
2023/12/26 08:58:18;;;;;;;0.50;0.50;;;19.60;40.10;;;;;;8362344;28;20033;-50
2023/12/26 09:02:19;;;;;;;0.80;0.60;;;19.60;40.20;;;;;;8362268;28;20033;-48
2023/12/26 09:06:19;;;;;;;0.52;0.50;;;19.60;40.10;;;;;;8360836;28;20057;-48
2023/12/26 09:10:20;;;;;;;0.90;0.60;;;19.60;40.10;;;;;;8361961;28;20040;-50
2023/12/26 09:14:21;;;;;;;0.60;0.50;;;19.60;40.10;;;;;;8360594;28;20033;-48
2023/12/26 09:18:22;;;;;;;0.55;0.47;;;19.60;40.60;;;;;;8361817;28;20510;-49
2023/12/26 09:22:23;;;;;;;0.50;0.50;;;19.60;40.50;;;;;;8360342;28;20029;-51
2023/12/26 09:26:24;;;;;;;0.50;0.50;;;19.60;40.40;;;;;;8361864;28;20110;-48
2023/12/26 09:30:25;;;;;;;0.88;0.63;;;19.60;40.40;;;;;;8361197;28;20033;-51
2023/12/26 09:34:26;;;;;;;0.60;0.50;;;19.70;40.40;;;;;;8361182;28;20486;-50
2023/12/26 09:38:27;;;;;;;0.40;0.40;;;19.60;40.20;;;;;;8361450;28;20505;-49
2023/12/26 09:42:28;;;;;;;0.73;0.50;;;19.60;40.30;;;;;;8361020;28;20044;-49
2023/12/26 09:46:30;;;;;;;0.57;0.50;;;19.60;40.30;;;;;;8360906;28;20087;-48
2023/12/26 09:50:30;;;;;;;0.60;0.60;;;19.60;40.30;;;;;;8359624;28;20639;-48
2023/12/26 09:54:32;;;;;;;0.60;0.60;;;19.60;40.30;;;;;;8360531;28;20387;-49
2023/12/26 09:58:34;;;;;;;0.50;0.50;;;19.60;40.30;;;;;;8360345;28;20028;-50
2023/12/26 10:02:35;;;;;;;0.38;0.30;;;19.60;40.30;;;;;;8359639;28;20101;-50
2023/12/26 10:06:36;;;;;;;0.93;0.60;;;19.60;40.30;;;;;;8360211;28;20060;-51
2023/12/26 10:10:36;;;;;;;0.52;0.52;;;19.60;40.40;;;;;;8360322;28;20112;-50
2023/12/26 10:14:37;;;;;;;0.77;0.50;;;19.60;40.30;;;;;;8360191;28;20033;-49
2023/12/26 10:18:39;;;;;;;0.60;0.50;;;19.50;41.00;;;;;;8360067;28;20539;-51
2023/12/26 10:22:43;;;;;;;;;;;19.50;40.70;;;;;;8361065;28;20495;-48
2023/12/26 10:26:44;;;;;;;0.63;0.50;;;19.50;40.70;;;;;;8360033;28;19909;-48
2023/12/26 10:30:45;;;;;;;;;;;19.60;40.60;;;;;;8360415;28;20083;-49
2023/12/26 10:34:46;;;;;;;0.50;0.50;;;19.60;40.50;;;;;;8360362;28;19909;-50
2023/12/26 10:38:47;;;;;;;0.60;0.60;;;19.60;40.50;;;;;;8359775;28;20060;-48
2023/12/26 10:42:50;;;;;;;0.50;0.50;;;19.60;40.40;;;;;;8359792;28;20376;-50
2023/12/26 10:46:52;;;;;;;0.70;0.50;;;19.60;40.30;;;;;;8359390;28;20061;-48
2023/12/26 10:50:56;;;;;;;0.50;0.50;;;19.70;40.50;;;;;;8359574;28;20037;-50
2023/12/26 10:55:00;;;;;;;0.30;0.30;;;19.60;40.40;;;;;;8360089;28;20028;-49
2023/12/26 10:59:02;;;;;;;0.30;0.30;;;19.60;40.30;;;;;;8360182;28;20025;-49
2023/12/26 13:51:25;;;;;;;0.65;0.47;;;19.50;41.20;;;;;;8360951;28;20025;-50
2023/12/26 13:55:26;;;;;;;0.50;0.50;;;19.40;41.10;;;;;;8360734;28;20056;-49
2023/12/26 13:59:26;;;;;;;0.50;0.50;;;19.40;41.00;;;;;;8360654;28;20032;-49
2023/12/26 14:03:28;;;;;;;0.57;0.40;;;19.50;41.10;;;;;;8360544;28;20513;-51
2023/12/26 14:07:31;;;;;;;0.68;0.50;;;19.50;41.00;;;;;;8360230;28;20049;-51
2023/12/26 14:11:32;;;;;;;0.30;0.30;;;19.50;40.90;;;;;;8360573;28;20071;-50
2023/12/26 14:15:32;;;;;;;0.52;0.30;;;19.50;41.10;;;;;;8360733;28;20037;-52
2023/12/26 14:19:33;;;;;;;0.38;0.38;;;19.40;41.20;;;;;;8360573;28;20116;-49
2023/12/26 14:23:34;;;;;;;0.50;0.50;;;19.50;41.20;;;;;;8360745;28;20033;-49
2023/12/26 14:27:34;;;;;;;0.40;0.40;;;19.50;41.10;;;;;;8360401;28;20067;-48
2023/12/26 14:31:35;;;;;;;0.30;0.30;;;19.50;41.20;;;;;;8360023;28;20041;-49
2023/12/26 14:35:36;;;;;;;0.40;0.40;;;19.50;41.00;;;;;;8359940;28;20725;-51
2023/12/26 14:39:37;;;;;;;0.43;0.40;;;19.50;41.00;;;;;;8359870;28;20040;-51
2023/12/26 14:43:37;;;;;;;0.40;0.40;;;19.50;41.00;;;;;;8359923;28;20033;-49
2023/12/26 14:47:38;;;;;;;0.68;0.50;;;19.50;41.00;;;;;;8360557;28;20442;-52
2023/12/26 14:51:39;;;;;;;0.40;0.40;;;19.50;40.90;;;;;;8366902;28;20116;-49
2023/12/26 14:55:40;;;;;;;0.40;0.40;;;19.50;41.00;;;;;;8367044;28;20033;-51
2023/12/26 14:59:40;;;;;;;0.40;0.40;;;19.50;41.10;;;;;;8367314;28;20033;-49
2023/12/26 15:03:41;;;;;;;0.40;0.40;;;19.50;41.00;;;;;;8366377;28;20033;-50
2023/12/26 15:07:42;;;;;;;0.60;0.40;;;19.50;41.00;;;;;;8366364;28;20064;-49
2023/12/26 15:11:42;;;;;;;1.35;0.60;;;19.50;41.10;;;;;;8364903;28;20033;-49
2023/12/26 15:15:43;;;;;;;0.30;0.30;;;19.50;41.00;;;;;;8365004;28;20057;-50
2023/12/26 15:19:44;;;;;;;0.40;0.40;;;19.50;41.40;;;;;;8364923;28;20060;-49
2023/12/26 15:23:49;;;;;;;1.35;0.40;;;19.40;41.30;;;;;;8365539;28;20055;-49
2023/12/26 15:27:49;;;;;;;0.30;0.30;;;19.50;41.30;;;;;;8365340;28;20033;-48
2023/12/26 15:31:50;;;;;;;0.98;0.40;;;19.50;41.20;;;;;;8365132;28;20068;-48
2023/12/26 15:35:51;;;;;;;0.40;0.40;;;19.50;41.10;;;;;;8365192;28;20037;-47
2023/12/26 15:39:51;;;;;;;0.60;0.60;;;19.50;41.10;;;;;;8365052;28;20036;-50
2023/12/26 15:43:52;;;;;;;0.30;0.30;;;19.50;41.10;;;;;;8364747;28;20029;-48
2023/12/26 15:47:55;;;;;;;0.40;0.40;;;19.50;41.10;;;;;;8364515;28;20394;-46
2023/12/26 15:51:56;;;;;;;0.40;0.40;;;19.50;41.10;;;;;;8364777;28;20025;-48
2023/12/26 15:55:57;;;;;;;0.40;0.40;;;19.50;41.00;;;;;;8363176;28;20040;-48
2023/12/26 15:59:57;;;;;;;0.47;0.40;;;19.50;41.00;;;;;;8364531;28;20391;-49
2023/12/26 16:03:58;;;;;;;0.63;0.50;;;19.50;41.00;;;;;;8364179;28;20040;-49
2023/12/26 16:08:05;;;;;;;0.50;0.40;;;19.50;41.00;;;;;;8362473;28;20107;-49
2023/12/26 16:12:07;;;;;;;0.98;0.40;;;19.50;41.00;;;;;;8364358;28;20515;-47
2023/12/26 16:16:08;;;;;;;0.28;0.28;;;19.50;40.90;;;;;;8364361;28;20025;-47
2023/12/26 16:20:09;;;;;;;0.32;0.32;;;19.50;41.30;;;;;;8363723;28;20041;-48
2023/12/26 16:24:12;;;;;;;0.82;0.50;;;19.50;41.40;;;;;;8364381;28;20033;-48
2023/12/26 16:28:13;;;;;;;0.30;0.30;;;19.50;41.30;;;;;;8362015;28;20065;-47
2023/12/26 16:32:14;;;;;;;0.38;0.30;;;19.50;41.30;;;;;;8362166;28;20029;-50
2023/12/26 16:36:15;;;;;;;0.40;0.35;;;19.50;41.40;;;;;;8363495;28;20166;-51
2023/12/26 16:40:15;;;;;;;2.42;0.47;;;19.40;41.30;;;;;;8363305;28;20029;-47
2023/12/26 16:44:16;;;;;;;0.25;0.25;;;19.50;41.40;;;;;;8362979;28;20043;-48
2023/12/26 16:48:17;;;;;;;0.47;0.20;;;19.40;41.30;;;;;;8362985;28;20166;-49
2023/12/26 16:52:17;;;;;;;0.47;0.40;;;19.40;41.30;;;;;;8362681;28;20032;-47
2023/12/26 16:56:18;;;;;;;0.57;0.40;;;19.40;41.30;;;;;;8362474;28;20033;-48
2023/12/26 17:00:19;;;;;;;0.40;0.40;;;19.40;41.20;;;;;;8362798;28;20075;-49
2023/12/26 17:04:20;;;;;;;0.40;0.40;;;19.40;41.10;;;;;;8362306;28;20068;-49
2023/12/26 17:08:20;;;;;;;0.35;0.35;;;19.50;41.10;;;;;;8362411;28;20060;-48
2023/12/26 17:12:24;;;;;;;0.40;0.40;;;19.50;41.00;;;;;;8361812;28;20485;-48
2023/12/26 17:16:25;;;;;;;0.30;0.30;;;19.50;41.00;;;;;;8362587;28;20036;-47
2023/12/26 17:20:25;;;;;;;0.68;0.43;;;19.50;41.30;;;;;;8361805;28;20116;-49
2023/12/26 17:24:26;;;;;;;0.38;0.38;;;19.50;41.20;;;;;;8361901;28;20036;-48
2023/12/26 17:28:27;;;;;;;0.40;0.40;;;19.50;41.70;;;;;;8361310;28;20033;-48
2023/12/26 17:32:30;;;;;;;0.32;0.32;;;19.50;41.10;;;;;;8361737;28;20143;-48
2023/12/26 17:36:31;;;;;;;0.93;0.55;;;19.50;41.10;;;;;;8361577;28;20116;-48
2023/12/26 17:40:35;;;;;;;0.50;0.50;;;19.50;41.10;;;;;;8361144;28;20044;-49
2023/12/26 17:44:35;;;;;;;0.73;0.50;;;19.50;41.10;;;;;;8361140;28;20120;-49
2023/12/26 17:48:36;;;;;;;0.50;0.50;;;19.50;41.10;;;;;;8360942;28;20028;-49
2023/12/26 17:52:37;;;;;;;0.50;0.40;;;19.50;41.00;;;;;;8360861;28;20027;-50
2023/12/26 17:56:38;;;;;;;0.50;0.50;;;19.60;41.10;;;;;;8360567;28;20378;-48
2023/12/26 18:00:39;;;;;;;0.30;0.30;;;19.60;40.90;;;;;;8360472;28;20029;-50
2023/12/26 18:04:39;;;;;;;1.38;0.45;;;19.60;41.00;;;;;;8360769;28;20127;-49
2023/12/26 18:08:40;;;;;;;0.50;0.50;;;19.60;40.90;;;;;;8360330;28;20099;-48
2023/12/26 18:12:41;;;;;;;0.60;0.60;;;19.60;41.00;;;;;;8360538;28;20037;-48
2023/12/26 18:16:42;;;;;;;0.40;0.40;;;19.50;41.10;;;;;;8360180;28;20041;-48
2023/12/26 18:20:42;;;;;;;0.85;0.70;;;19.40;41.50;;;;;;8360291;28;20502;-49
2023/12/26 18:24:43;;;;;;;0.43;0.43;;;19.50;41.40;;;;;;8359389;28;20040;-48
2023/12/26 18:28:44;;;;;;;0.40;0.40;;;19.50;41.40;;;;;;8359824;28;20029;-49
2023/12/26 18:32:45;;;;;;;0.40;0.38;;;19.50;41.30;;;;;;8360125;28;20120;-48
2023/12/26 18:36:45;;;;;;;0.50;0.50;;;19.50;41.20;;;;;;8359919;28;20041;-50
2023/12/26 18:40:46;;;;;;;0.47;0.43;;;19.50;41.10;;;;;;8359717;28;20360;-47
2023/12/26 18:44:49;;;;;;;1.00;0.60;;;19.50;41.10;;;;;;8359904;28;20032;-51
2023/12/26 18:48:50;;;;;;;0.73;0.73;;;19.50;41.10;;;;;;8359518;28;20102;-48
2023/12/26 18:52:50;;;;;;;0.40;0.38;;;19.50;41.20;;;;;;8359769;28;20025;-50
2023/12/26 18:56:51;;;;;;;0.43;0.40;;;19.50;41.20;;;;;;8359797;28;20036;-49
2023/12/26 19:00:52;;;;;;;1.15;0.60;;;19.50;41.20;;;;;;8359497;28;20044;-49
2023/12/26 19:04:53;;;;;;;0.40;0.40;;;19.60;41.20;;;;;;8359437;28;20116;-49
2023/12/26 19:08:56;;;;;;;0.70;0.50;;;19.50;41.00;;;;;;8359355;28;20053;-49
2023/12/26 19:13:00;;;;;;;0.50;0.50;;;19.60;41.10;;;;;;8359218;28;20078;-50
2023/12/26 19:17:01;;;;;;;0.50;0.50;;;19.60;41.00;;;;;;8359449;28;20108;-50
2023/12/26 19:21:05;;;;;;;0.77;0.57;;;19.50;41.40;;;;;;8359344;28;20041;-49
2023/12/26 19:25:06;;;;;;;0.68;0.50;;;19.50;41.20;;;;;;8359537;28;20383;-50
2023/12/26 19:29:13;;;;;;;0.77;0.50;;;19.50;41.20;;;;;;8358824;28;20056;-51
2023/12/26 19:33:14;;;;;;;0.50;0.40;;;19.50;41.20;;;;;;8359117;28;20025;-49
2023/12/26 19:37:15;;;;;;;1.00;0.90;;;19.50;41.20;;;;;;8364931;28;20505;-48
2023/12/26 19:41:16;;;;;;;0.52;0.50;;;19.50;41.10;;;;;;8365533;28;20040;-48
2023/12/26 19:45:17;;;;;;;0.77;0.60;;;19.50;41.10;;;;;;8365323;28;20088;-50
2023/12/26 19:49:19;;;;;;;0.60;0.60;;;19.60;41.00;;;;;;8364812;28;20029;-48
2023/12/26 19:53:20;;;;;;;0.43;0.43;;;19.60;41.10;;;;;;8365253;28;20071;-49
2023/12/26 19:57:22;;;;;;;0.88;0.70;;;19.60;41.10;;;;;;8364737;28;20041;-48
2023/12/26 20:01:23;;;;;;;0.80;0.57;;;19.60;41.00;;;;;;8365001;28;20044;-49
2023/12/26 20:05:26;;;;;;;0.60;0.60;;;19.60;41.00;;;;;;8364542;28;20081;-49
2023/12/26 20:09:29;;;;;;;0.57;0.57;;;19.60;41.00;;;;;;8364651;28;20036;-49
2023/12/26 20:13:30;;;;;;;0.40;0.40;;;19.60;41.00;;;;;;8364392;28;20029;-49
2023/12/26 20:17:34;;;;;;;0.63;0.50;;;19.50;41.10;;;;;;8364575;28;20155;-48
2023/12/26 20:21:37;;;;;;;0.82;0.75;;;19.50;41.50;;;;;;8364271;28;20060;-50
2023/12/26 20:25:37;;;;;;;0.50;0.50;;;19.50;41.30;;;;;;8364020;28;20033;-49
2023/12/26 20:29:38;;;;;;;0.70;0.63;;;19.50;41.40;;;;;;8363636;28;20037;-49
2023/12/26 20:33:39;;;;;;;0.60;0.60;;;19.50;41.30;;;;;;8364471;28;20059;-50
2023/12/26 20:37:39;;;;;;;0.75;0.57;;;19.50;41.30;;;;;;8363784;28;20095;-50
2023/12/26 20:41:44;;;;;;;0.77;0.50;;;19.50;41.30;;;;;;8363339;28;20068;-49
2023/12/26 20:45:44;;;;;;;1.10;0.75;;;19.50;41.30;;;;;;8363028;28;20033;-49
2023/12/26 20:49:45;;;;;;;0.40;0.40;;;19.50;41.30;;;;;;8363427;28;20032;-49
2023/12/26 20:53:48;;;;;;;1.05;0.80;;;19.50;41.10;;;;;;8363257;28;20040;-49
2023/12/26 20:57:49;;;;;;;1.00;0.70;;;19.50;41.10;;;;;;8362318;28;20108;-49
2023/12/26 21:01:49;;;;;;;0.50;0.50;;;19.50;41.00;;;;;;8363435;28;20035;-49
2023/12/26 21:05:50;;;;;;;0.68;0.60;;;19.60;41.10;;;;;;8362853;28;20056;-49
2023/12/26 21:09:51;;;;;;;0.60;0.60;;;19.60;41.00;;;;;;8362801;28;20029;-49
2023/12/26 21:13:55;;;;;;;0.70;0.57;;;19.60;41.00;;;;;;8362393;28;20037;-51
2023/12/26 21:18:01;;;;;;;0.60;0.60;;;19.50;41.10;;;;;;8362055;28;20029;-49
2023/12/26 21:22:02;;;;;;;0.93;0.70;;;19.50;41.40;;;;;;8361920;28;20418;-51
2023/12/26 21:26:29;;;;;;;1.58;0.65;;;19.50;41.30;;;;;;8361746;28;20076;-50
2023/12/26 21:30:32;;;;;;;0.63;0.63;;;19.50;41.30;;;;;;8361289;28;20041;-49
2023/12/26 21:34:36;;;;;;;0.85;0.65;;;19.50;41.30;;;;;;8361501;28;20033;-49
2023/12/26 21:38:38;;;;;;;0.50;0.50;;;19.50;41.30;;;;;;8359875;28;20453;-48
2023/12/26 21:42:39;;;;;;;0.57;0.50;;;19.50;41.30;;;;;;8361368;28;20483;-49
2023/12/26 21:46:45;;;;;;;0.85;0.77;;;19.50;41.40;;;;;;8361046;28;20033;-50
2023/12/26 21:50:49;;;;;;;1.10;0.55;;;19.50;41.40;;;;;;8361177;28;20474;-50
2023/12/26 21:54:50;;;;;;;0.50;0.47;;;19.40;41.40;;;;;;8360782;28;20033;-52
2023/12/26 21:58:51;;;;;;;0.88;0.60;;;19.50;41.40;;;;;;8360511;28;20107;-49
2023/12/26 22:02:55;;;;;;;0.52;0.52;;;19.50;41.50;;;;;;8360626;28;20033;-49
2023/12/26 22:06:56;;;;;;;0.73;0.68;;;19.40;41.40;;;;;;8360333;28;20532;-50
2023/12/26 22:10:57;;;;;;;0.80;0.68;;;19.50;41.40;;;;;;8358889;28;20399;-49
2023/12/26 22:14:58;;;;;;;0.80;0.60;;;19.40;41.40;;;;;;8360139;28;20061;-49
2023/12/26 22:18:59;;;;;;;0.95;0.60;;;19.40;41.80;;;;;;8360102;28;20061;-48
2023/12/26 22:22:59;;;;;;;0.60;0.40;;;19.40;41.60;;;;;;8360241;28;20478;-49
2023/12/26 22:27:00;;;;;;;0.50;0.50;;;19.40;41.60;;;;;;8360645;28;20040;-48
2023/12/26 22:31:01;;;;;;;1.60;0.60;;;19.40;41.60;;;;;;8359902;28;20029;-51
2023/12/26 22:35:01;;;;;;;0.63;0.60;;;19.40;41.50;;;;;;8360007;28;20029;-49
2023/12/26 22:39:02;;;;;;;0.70;0.70;;;19.40;41.50;;;;;;8360344;28;20052;-50
2023/12/26 22:43:04;;;;;;;1.35;0.88;;;19.40;41.60;;;;;;8359926;28;20041;-50
2023/12/26 22:47:04;;;;;;;0.85;0.70;;;19.40;41.50;;;;;;8360350;28;20115;-49
2023/12/26 22:51:05;;;;;;;1.00;0.60;;;19.40;41.60;;;;;;8360432;28;20025;-52
2023/12/26 22:55:06;;;;;;;1.00;0.90;;;19.40;41.60;;;;;;8359902;28;20060;-51
2023/12/26 22:59:09;;;;;;;;;;;19.40;41.60;;;;;;8360306;28;20029;-51
2023/12/26 23:03:10;;;;;;;0.98;0.60;;;19.40;41.60;;;;;;8359647;28;19999;-49
2023/12/26 23:07:15;;;;;;;0.77;0.60;;;19.40;42.00;;;;;;8359710;28;20045;-52
2023/12/26 23:11:20;;;;;;;0.63;0.60;;;19.40;41.90;;;;;;8364291;28;20025;-50
2023/12/26 23:15:20;;;;;;;0.75;0.57;;;19.30;41.40;;;;;;8366709;28;20112;-51
2023/12/26 23:19:23;;;;;;;0.68;0.55;;;19.30;41.90;;;;;;8366103;28;20478;-51
2023/12/26 23:23:24;;;;;;;0.77;0.60;;;19.30;41.90;;;;;;8365955;28;20564;-48
2023/12/26 23:27:25;;;;;;;0.70;0.70;;;19.30;41.80;;;;;;8366070;28;20402;-51
2023/12/26 23:31:27;;;;;;;0.82;0.70;;;19.30;41.80;;;;;;8365559;28;20029;-48
2023/12/26 23:35:28;;;;;;;0.90;0.50;;;19.30;41.80;;;;;;8365493;28;20536;-49
2023/12/26 23:39:28;;;;;;;1.13;0.73;;;19.30;41.80;;;;;;8364334;28;20558;-50
2023/12/26 23:43:29;;;;;;;0.65;0.52;;;19.30;41.80;;;;;;8365391;28;20080;-52
2023/12/26 23:47:30;;;;;;;1.00;0.70;;;19.30;41.80;;;;;;8365444;28;20036;-51